PWSweather.com
Personal Weather Stations
Station Observations

OlomoucCZ

Lat: 49.5936202181, Lon: 17.2276005149

Elevation: 752

Station Type: Davis Vantage Pro 2 Activ

http://infopocasi-olomouc.cz

High Low Average
Temperature 33.6°F0.9°C 23.1°F-4.9°C 27.6°F-2.4°C
Dew Point 27.9°F-2.3°C 20.1°F-6.6°C 23.7°F-4.6°C
Winds 3.5 mph 5.6 kmh Calm Calm 1.0 mph NW1.6 kmh NW
Wind Gusts 4.6 mph7.4 kmh -- 2.0 mph3.2 kmh
Humidity 90% 75% 85%
Pressure 30.14 in1020.7 mb 30.00 in1015.9 mb -
Precipitation 0.00 in0.0 mm - -
Hour Temp Dew Point Humidity Winds Wind Gusts Pressure Precip Precip Rate Daily Precip Total
12:00 AM 25.9°F-3.4°C 23.1°F-4.9°C 89% Calm Calm -- 30.07 in1018.3 mb - 0.00 in0.0 mm 0.00 in0.0 mm
12:30 AM 25.9°F-3.4°C 23.1°F-4.9°C 89% Calm Calm -- 30.06 in1017.9 mb - 0.00 in0.0 mm 0.00 in0.0 mm
01:00 AM 26.2°F-3.2°C 23.1°F-4.9°C 88% Calm Calm -- 30.06 in1017.9 mb - 0.00 in0.0 mm 0.00 in0.0 mm
01:30 AM 26.2°F-3.2°C 23.1°F-4.9°C 88% Calm Calm -- 30.06 in1017.9 mb - 0.00 in0.0 mm 0.00 in0.0 mm
02:00 AM 26.2°F-3.2°C 23.1°F-4.9°C 88% 2.3 mph NW3.7 kmh NW 3.5 mph5.6 kmh 30.05 in1017.6 mb - 0.00 in0.0 mm 0.00 in0.0 mm
02:30 AM 25.8°F-3.4°C 23.0°F-5.0°C 89% 2.3 mph NW3.7 kmh NW 3.5 mph5.6 kmh 30.05 in1017.6 mb - 0.00 in0.0 mm 0.00 in0.0 mm
03:00 AM 25.3°F-3.7°C 22.5°F-5.3°C 89% Calm Calm -- 30.03 in1016.9 mb - 0.00 in0.0 mm 0.00 in0.0 mm
03:30 AM 25.2°F-3.8°C 22.4°F-5.3°C 89% Calm Calm -- 30.03 in1016.9 mb - 0.00 in0.0 mm 0.00 in0.0 mm
04:00 AM 25.1°F-3.8°C 22.3°F-5.4°C 89% Calm Calm -- 30.02 in1016.6 mb - 0.00 in0.0 mm 0.00 in0.0 mm
04:30 AM 24.5°F-4.2°C 21.7°F-5.7°C 89% Calm Calm -- 30.02 in1016.6 mb - 0.00 in0.0 mm 0.00 in0.0 mm
05:00 AM 24.2°F-4.3°C 21.7°F-5.7°C 90% Calm Calm -- 30.00 in1015.9 mb - 0.00 in0.0 mm 0.00 in0.0 mm
05:30 AM 24.4°F-4.2°C 21.9°F-5.6°C 90% Calm Calm -- 30.00 in1015.9 mb - 0.00 in0.0 mm 0.00 in0.0 mm
06:00 AM 25.3°F-3.7°C 22.5°F-5.3°C 89% Calm Calm -- 30.00 in1015.9 mb - 0.00 in0.0 mm 0.00 in0.0 mm
06:30 AM 25.8°F-3.4°C 22.7°F-5.2°C 88% Calm Calm -- 30.00 in1015.9 mb - 0.00 in0.0 mm 0.00 in0.0 mm
07:00 AM 25.7°F-3.5°C 22.9°F-5.1°C 89% 1.2 mph NW1.9 kmh NW 1.2 mph1.9 kmh 30.00 in1015.9 mb - 0.00 in0.0 mm 0.00 in0.0 mm
07:30 AM 25.8°F-3.4°C 23.0°F-5.0°C 89% Calm Calm -- 30.00 in1015.9 mb - 0.00 in0.0 mm 0.00 in0.0 mm
08:00 AM 25.9°F-3.4°C 23.1°F-4.9°C 89% 2.3 mph NW3.7 kmh NW 3.5 mph5.6 kmh 30.01 in1016.3 mb - 0.00 in0.0 mm 0.00 in0.0 mm
08:30 AM 26.0°F-3.3°C 22.9°F-5.1°C 88% Calm Calm 2.3 mph3.7 kmh 30.01 in1016.3 mb - 0.00 in0.0 mm 0.00 in0.0 mm
09:00 AM 26.6°F-3.0°C 23.5°F-4.7°C 88% 1.2 mph NW1.9 kmh NW 2.3 mph3.7 kmh 30.02 in1016.6 mb - 0.00 in0.0 mm 0.00 in0.0 mm
09:30 AM 27.5°F-2.5°C 24.1°F-4.4°C 87% 1.2 mph NW1.9 kmh NW 1.2 mph1.9 kmh 30.02 in1016.6 mb - 0.00 in0.0 mm 0.00 in0.0 mm
10:00 AM 28.5°F-1.9°C 25.1°F-3.8°C 87% 1.2 mph NW1.9 kmh NW 3.5 mph5.6 kmh 30.03 in1016.9 mb - 0.00 in0.0 mm 0.00 in0.0 mm
10:30 AM 29.5°F-1.4°C 25.5°F-3.6°C 85% 1.2 mph NW1.9 kmh NW 2.3 mph3.7 kmh 30.03 in1016.9 mb - 0.00 in0.0 mm 0.00 in0.0 mm
11:00 AM 30.3°F-0.9°C 26.0°F-3.3°C 84% 2.3 mph NW3.7 kmh NW 3.5 mph5.6 kmh 30.02 in1016.6 mb - 0.00 in0.0 mm 0.00 in0.0 mm
11:30 AM 30.8°F-0.7°C 26.5°F-3.1°C 84% 1.2 mph NW1.9 kmh NW 2.3 mph3.7 kmh 30.02 in1016.6 mb - 0.00 in0.0 mm 0.00 in0.0 mm
12:00 PM 31.4°F-0.3°C 26.8°F-2.9°C 83% 1.2 mph NW1.9 kmh NW 2.3 mph3.7 kmh 30.02 in1016.6 mb - 0.00 in0.0 mm 0.00 in0.0 mm
12:30 PM 32.5°F0.3°C 27.3°F-2.6°C 81% 3.5 mph NW5.6 kmh NW 3.5 mph5.6 kmh 30.02 in1016.6 mb - 0.00 in0.0 mm 0.00 in0.0 mm
01:00 PM 32.4°F0.2°C 26.9°F-2.8°C 80% 1.2 mph NW1.9 kmh NW 3.5 mph5.6 kmh 30.02 in1016.6 mb - 0.00 in0.0 mm 0.00 in0.0 mm
01:30 PM 33.4°F0.8°C 27.9°F-2.3°C 80% 2.3 mph NW3.7 kmh NW 3.5 mph5.6 kmh 30.01 in1016.3 mb - 0.00 in0.0 mm 0.00 in0.0 mm
02:00 PM 33.6°F0.9°C 27.2°F-2.7°C 77% 2.3 mph NW3.7 kmh NW 3.5 mph5.6 kmh 30.01 in1016.3 mb - 0.00 in0.0 mm 0.00 in0.0 mm
02:30 PM 33.6°F0.9°C 26.8°F-2.9°C 76% Calm Calm -- 30.01 in1016.3 mb - 0.00 in0.0 mm 0.00 in0.0 mm
03:00 PM 33.2°F0.7°C 26.1°F-3.3°C 75% 1.2 mph WNW1.9 kmh WNW 2.3 mph3.7 kmh 30.01 in1016.3 mb - 0.00 in0.0 mm 0.00 in0.0 mm
03:30 PM 32.7°F0.4°C 25.9°F-3.4°C 76% 1.2 mph NW1.9 kmh NW 2.3 mph3.7 kmh 30.01 in1016.3 mb - 0.00 in0.0 mm 0.00 in0.0 mm
04:00 PM 31.9°F-0.1°C 26.2°F-3.2°C 79% 2.3 mph NW3.7 kmh NW 3.5 mph5.6 kmh 30.02 in1016.6 mb - 0.00 in0.0 mm 0.00 in0.0 mm
04:30 PM 30.7°F-0.7°C 25.6°F-3.6°C 81% Calm Calm 2.3 mph3.7 kmh 30.02 in1016.6 mb - 0.00 in0.0 mm 0.00 in0.0 mm
05:00 PM 29.4°F-1.4°C 25.1°F-3.8°C 84% 1.2 mph NW1.9 kmh NW 2.3 mph3.7 kmh 30.03 in1016.9 mb - 0.00 in0.0 mm 0.00 in0.0 mm
05:30 PM 28.4°F-2.0°C 24.7°F-4.1°C 86% 2.3 mph NNW3.7 kmh NNW 3.5 mph5.6 kmh 30.04 in1017.3 mb - 0.00 in0.0 mm 0.00 in0.0 mm
06:00 PM 27.9°F-2.3°C 24.3°F-4.3°C 86% 1.2 mph NNE1.9 kmh NNE 2.3 mph3.7 kmh 30.04 in1017.3 mb - 0.00 in0.0 mm 0.00 in0.0 mm
06:30 PM 27.6°F-2.4°C 23.7°F-4.6°C 85% 3.5 mph N5.6 kmh N 3.5 mph5.6 kmh 30.05 in1017.6 mb - 0.00 in0.0 mm 0.00 in0.0 mm
07:00 PM 28.8°F-1.8°C 23.1°F-4.9°C 79% 2.3 mph NNW3.7 kmh NNW 4.6 mph7.4 kmh 30.06 in1017.9 mb - 0.00 in0.0 mm 0.00 in0.0 mm
07:30 PM 27.2°F-2.7°C 22.2°F-5.4°C 81% 2.3 mph N3.7 kmh N 2.3 mph3.7 kmh 30.07 in1018.3 mb - 0.00 in0.0 mm 0.00 in0.0 mm
08:00 PM 26.4°F-3.1°C 21.9°F-5.6°C 83% 3.5 mph N5.6 kmh N 3.5 mph5.6 kmh 30.08 in1018.6 mb - 0.00 in0.0 mm 0.00 in0.0 mm
08:30 PM 25.5°F-3.6°C 21.3°F-5.9°C 84% 1.2 mph NW1.9 kmh NW 2.3 mph3.7 kmh 30.09 in1019.0 mb - 0.00 in0.0 mm 0.00 in0.0 mm
09:00 PM 24.8°F-4.0°C 20.9°F-6.2°C 85% 3.5 mph NW5.6 kmh NW 3.5 mph5.6 kmh 30.10 in1019.3 mb - 0.00 in0.0 mm 0.00 in0.0 mm
09:30 PM 24.3°F-4.3°C 20.7°F-6.3°C 86% 1.2 mph NW1.9 kmh NW 2.3 mph3.7 kmh 30.11 in1019.6 mb - 0.00 in0.0 mm 0.00 in0.0 mm
10:00 PM 23.5°F-4.7°C 20.2°F-6.6°C 87% 2.3 mph NW3.7 kmh NW 3.5 mph5.6 kmh 30.11 in1019.6 mb - 0.00 in0.0 mm 0.00 in0.0 mm
10:30 PM 23.4°F-4.8°C 20.4°F-6.4°C 88% 2.3 mph NW3.7 kmh NW 3.5 mph5.6 kmh 30.12 in1020.0 mb - 0.00 in0.0 mm 0.00 in0.0 mm
11:00 PM 23.1°F-4.9°C 20.1°F-6.6°C 88% 3.5 mph NW5.6 kmh NW 4.6 mph7.4 kmh 30.13 in1020.3 mb - 0.00 in0.0 mm 0.00 in0.0 mm
11:30 PM 25.1°F-3.8°C 21.2°F-6.0°C 85% 3.5 mph NW5.6 kmh NW 4.6 mph7.4 kmh 30.14 in1020.7 mb - 0.00 in0.0 mm 0.00 in0.0 mm